Details for Delta Airlines at KATL




Go Back


Latest METAR
Local Time

KATL 240652Z 07006KT 1/2SM R09R/2800VP6000FT FG VV002 21/21 A3007 RMK AO2 SLP173 T02110206

24/05/2018, 03:43:28

Description
Results
Delta Airlines Logo
Number of Pilots based at KATL
0 Pilots Based here
Number of Delta Airlines Flights Departed from KATL
5 Flights Departed
Number of Delta Airlines Flights Arrived at KATL
7 Flights Arrived
Number of Delta Airlines Schedules Departing from KATL
1749 Schedules
Number of Delta Airlines Schedules Arriving at KATL
1837 Schedules
Number of Delta Airlines Schedules Departing from KATL availible today
1035 Schedules Today
Number of Delta Airlines Schedules Arriving at KATL availible today
1042 Schedules Today
Average Landing Rate at KATL
-164 fpm
Delta Airlines Average Landing Rate at KATL
-134 fpm
Total Fuel Purchased at KATL by Delta Airlines
26,528.35 kgs / 58,484.40 lbs

Pilots Based at KATL


Pilot ID
Pilot Name
Pilot Rank
No. of Flights
No. of Flying Hours
There are no pilots assigned to this hub!   Will you be the first?
Content